createdAt,value
2023-09-01T00:02:20.162Z,47.08
2023-09-01T00:07:23.861Z,47.20
2023-09-01T00:12:29.310Z,47.27
2023-09-01T00:17:33.018Z,48.03
2023-09-01T00:22:36.701Z,47.00
2023-09-01T00:27:42.027Z,43.87
2023-09-01T00:32:45.792Z,43.23
2023-09-01T00:37:49.480Z,41.06
2023-09-01T00:42:54.835Z,41.62
2023-09-01T00:47:59.206Z,42.08
2023-09-01T00:53:03.724Z,42.55
2023-09-01T00:58:09.044Z,42.72
2023-09-01T01:03:14.399Z,43.61
2023-09-01T01:08:32.402Z,43.84
2023-09-01T01:13:41.867Z,44.48
2023-09-01T01:18:47.965Z,45.35
2023-09-01T01:23:54.688Z,45.21
2023-09-01T01:28:58.345Z,45.89
2023-09-01T01:34:11.902Z,47.28
2023-09-01T01:39:22.400Z,46.66
2023-09-01T01:44:29.184Z,46.74
2023-09-01T01:49:33.172Z,47.16
2023-09-01T01:54:38.530Z,47.55
2023-09-01T01:59:42.153Z,47.77
2023-09-01T02:04:45.926Z,47.82
2023-09-01T02:09:51.423Z,48.68
2023-09-01T02:14:55.277Z,49.37
2023-09-01T02:19:59.159Z,49.14
2023-09-01T02:25:04.765Z,50.35
2023-09-01T02:30:09.617Z,51.05
2023-09-01T02:35:13.364Z,50.67
2023-09-01T02:40:18.693Z,50.60
2023-09-01T02:45:24.814Z,50.94
2023-09-01T02:50:29.121Z,51.96
2023-09-01T02:55:35.587Z,53.44
2023-09-01T03:00:39.379Z,54.46
2023-09-01T03:05:43.077Z,55.31
2023-09-01T03:10:48.429Z,56.31
2023-09-01T03:15:54.686Z,56.45
2023-09-01T03:21:09.657Z,56.78
2023-09-01T03:26:15.131Z,56.36
2023-09-01T03:31:19.090Z,56.28
2023-09-01T03:36:22.846Z,56.86
2023-09-01T03:41:28.281Z,58.28
2023-09-01T03:46:32.277Z,59.11
2023-09-01T03:51:35.995Z,59.20
2023-09-01T03:56:41.359Z,60.66
2023-09-01T04:01:44.324Z,61.64
2023-09-01T04:06:48.067Z,61.02
2023-09-01T04:11:54.377Z,62.08
2023-09-01T04:16:58.031Z,62.27
2023-09-01T04:22:01.700Z,63.26
2023-09-01T04:27:07.121Z,64.72
2023-09-01T04:32:10.800Z,65.87
2023-09-01T04:37:15.254Z,63.73
2023-09-01T04:42:20.645Z,64.55
2023-09-01T04:47:25.174Z,64.38
2023-09-01T04:52:41.027Z,64.34
2023-09-01T04:57:49.478Z,65.85
2023-09-01T05:02:53.217Z,64.95
2023-09-01T05:07:57.076Z,63.98
2023-09-01T05:13:02.492Z,65.07
2023-09-01T05:18:06.425Z,66.53
2023-09-01T05:23:10.142Z,64.94
2023-09-01T05:28:15.789Z,65.85
2023-09-01T05:33:19.614Z,64.90
2023-09-01T05:38:23.328Z,64.95
2023-09-01T05:43:28.630Z,65.25
2023-09-01T05:48:32.423Z,65.79
2023-09-01T05:53:36.136Z,65.47
2023-09-01T05:58:41.483Z,66.11
2023-09-01T06:03:45.210Z,65.89
2023-09-01T06:08:48.954Z,65.95
2023-09-01T06:13:55.173Z,66.40
2023-09-01T06:19:01.087Z,66.42
2023-09-01T06:24:05.026Z,66.56
2023-09-01T06:29:10.352Z,66.32
2023-09-01T06:34:14.020Z,65.64
2023-09-01T06:39:17.781Z,65.25
2023-09-01T06:44:23.193Z,65.86
2023-09-01T06:49:26.097Z,68.22
2023-09-01T06:54:29.892Z,66.87
2023-09-01T06:59:35.340Z,68.36
2023-09-01T07:04:38.960Z,67.97
2023-09-01T07:09:42.612Z,67.43
2023-09-01T07:14:47.905Z,67.47
2023-09-01T07:19:51.732Z,66.94
2023-09-01T07:24:55.621Z,67.36
2023-09-01T07:30:01.012Z,67.29
2023-09-01T07:35:04.880Z,67.87
2023-09-01T07:40:09.535Z,68.29
2023-09-01T07:45:15.112Z,68.32
2023-09-01T07:50:18.066Z,70.00
2023-09-01T07:55:21.892Z,69.32
2023-09-01T08:00:27.617Z,69.51
2023-09-01T08:05:31.305Z,68.29
2023-09-01T08:10:35.008Z,68.08
2023-09-01T08:15:40.335Z,68.35
2023-09-01T08:20:44.699Z,68.07
2023-09-01T08:25:48.386Z,67.94
2023-09-01T08:30:53.728Z,70.21
2023-09-01T08:35:57.526Z,69.83
2023-09-01T08:41:02.671Z,68.67
2023-09-01T08:46:15.124Z,68.54
2023-09-01T08:51:20.992Z,68.30
2023-09-01T08:56:24.869Z,68.45
2023-09-01T09:01:32.133Z,69.04
2023-09-01T09:06:37.323Z,69.11
2023-09-01T09:11:41.137Z,68.12
2023-09-01T09:16:55.425Z,69.67
2023-09-01T09:22:09.503Z,68.96
2023-09-01T09:27:17.058Z,69.87
2023-09-01T09:32:24.006Z,69.89
2023-09-01T09:37:27.728Z,69.95
2023-09-01T09:42:38.833Z,70.27
2023-09-01T09:47:45.288Z,70.83
2023-09-01T09:52:51.003Z,70.55
2023-09-01T09:57:56.530Z,71.95
2023-09-01T10:03:02.589Z,70.78
2023-09-01T10:08:08.185Z,71.23
2023-09-01T10:13:12.651Z,71.24
2023-09-01T10:18:19.576Z,72.37
2023-09-01T10:23:23.341Z,71.43
2023-09-01T10:28:27.151Z,71.87
2023-09-01T10:33:36.075Z,71.48
2023-09-01T10:38:40.132Z,71.84
2023-09-01T10:43:56.164Z,72.76
2023-09-01T10:49:02.084Z,72.74
2023-09-01T10:54:41.234Z,74.61
2023-09-01T10:59:44.920Z,74.44
2023-09-01T11:04:52.784Z,75.11
2023-09-01T11:09:56.475Z,74.34
2023-09-01T11:15:01.889Z,73.13
2023-09-01T11:20:08.776Z,73.59
2023-09-01T11:25:15.974Z,73.80
2023-09-01T11:30:21.090Z,73.60
2023-09-01T11:35:30.575Z,74.90
2023-09-01T11:40:35.378Z,74.12
2023-09-01T11:45:48.292Z,75.12
2023-09-01T11:50:54.668Z,74.83
2023-09-01T11:55:59.172Z,74.82
2023-09-01T12:01:10.483Z,74.64
2023-09-01T12:06:20.317Z,73.44
2023-09-01T12:11:24.093Z,74.02
2023-09-01T12:16:27.958Z,73.01
2023-09-01T12:21:34.024Z,74.07
2023-09-01T12:26:37.827Z,73.63
2023-09-01T12:31:41.715Z,74.25
2023-09-01T12:36:47.191Z,74.97
2023-09-01T12:41:51.023Z,75.54
2023-09-01T12:46:54.791Z,75.11
2023-09-01T12:52:00.518Z,74.96
2023-09-01T12:57:04.369Z,74.66
2023-09-01T13:02:08.230Z,74.25
2023-09-01T13:07:13.623Z,73.87
2023-09-01T13:12:17.515Z,73.70
2023-09-01T13:17:21.264Z,73.36
2023-09-01T13:22:26.653Z,74.01
2023-09-01T13:27:30.370Z,73.86
2023-09-01T13:32:34.154Z,73.74
2023-09-01T13:37:40.562Z,74.41
2023-09-01T13:42:44.343Z,73.52
2023-09-01T13:47:48.211Z,73.96
2023-09-01T13:52:53.632Z,73.87
2023-09-01T13:57:57.364Z,73.07
2023-09-01T14:03:01.181Z,73.93
2023-09-01T14:08:06.970Z,74.05
2023-09-01T14:13:10.721Z,73.73
2023-09-01T14:18:14.452Z,73.39
2023-09-01T14:23:19.926Z,73.53
2023-09-01T14:28:23.858Z,74.04
2023-09-01T14:33:41.438Z,73.98
2023-09-01T14:38:51.471Z,74.50
2023-09-01T14:43:55.341Z,74.42
2023-09-01T14:48:59.147Z,74.72
2023-09-01T14:54:05.844Z,73.87
2023-09-01T14:59:09.543Z,74.07
2023-09-01T15:04:13.338Z,72.30
2023-09-01T15:09:19.486Z,71.57
2023-09-01T15:14:23.391Z,69.99
2023-09-01T15:19:28.174Z,68.11
2023-09-01T15:24:33.564Z,65.93
2023-09-01T15:29:37.270Z,64.94
2023-09-01T15:34:40.962Z,63.89
2023-09-01T15:39:46.345Z,62.59
2023-09-01T15:44:50.085Z,61.44
2023-09-01T15:49:53.772Z,62.11
2023-09-01T15:55:00.252Z,61.58
2023-09-01T16:00:04.073Z,62.16
2023-09-01T16:05:08.150Z,62.45
2023-09-01T16:10:13.804Z,62.85
2023-09-01T16:15:17.604Z,63.18
2023-09-01T16:20:22.139Z,63.81
2023-09-01T16:25:27.582Z,64.10
2023-09-01T16:30:30.645Z,63.34
2023-09-01T16:35:54.156Z,62.97
2023-09-01T16:41:00.076Z,62.16
2023-09-01T16:46:04.026Z,61.52
2023-09-01T16:51:07.750Z,61.31
2023-09-01T16:56:14.143Z,60.62
2023-09-01T17:01:18.539Z,60.04
2023-09-01T17:06:22.300Z,59.25
2023-09-01T17:11:28.193Z,59.20
2023-09-01T17:16:31.966Z,57.32
2023-09-01T17:21:36.408Z,55.46
2023-09-01T17:26:41.862Z,53.11
2023-09-01T17:31:45.588Z,52.82
2023-09-01T17:36:49.297Z,52.01
2023-09-01T17:41:54.781Z,51.87
2023-09-01T17:46:58.514Z,51.58
2023-09-01T17:52:02.251Z,51.48
2023-09-01T17:57:07.943Z,50.25
2023-09-01T18:02:11.787Z,50.23
2023-09-01T18:07:15.637Z,50.36
2023-09-01T18:12:21.081Z,49.17
2023-09-01T18:17:25.238Z,48.98
2023-09-01T18:22:29.038Z,48.64
2023-09-01T18:27:34.508Z,46.92
2023-09-01T18:32:38.388Z,47.43
2023-09-01T18:37:45.344Z,46.78
2023-09-01T18:42:52.403Z,46.98
2023-09-01T18:47:56.231Z,46.65
2023-09-01T18:53:01.892Z,47.20
2023-09-01T18:58:10.152Z,47.17
2023-09-01T19:03:20.887Z,47.45
2023-09-01T19:08:25.763Z,46.69
2023-09-01T19:13:31.410Z,47.41
2023-09-01T19:18:38.939Z,46.81
2023-09-01T19:23:43.484Z,46.84
2023-09-01T19:28:49.350Z,45.54
2023-09-01T19:33:55.956Z,44.97
2023-09-01T19:39:01.573Z,44.27
2023-09-01T19:44:11.224Z,44.79
2023-09-01T19:49:16.191Z,44.53
2023-09-01T19:54:20.408Z,44.85
2023-09-01T19:59:26.012Z,45.83
2023-09-01T20:04:29.844Z,45.59
2023-09-01T20:09:33.587Z,46.29
2023-09-01T20:14:38.966Z,47.82
2023-09-01T20:19:45.015Z,48.08
2023-09-01T20:24:48.761Z,47.75
2023-09-01T20:29:54.308Z,48.27
2023-09-01T20:34:58.031Z,47.92
2023-09-01T20:40:01.772Z,47.22
2023-09-01T20:45:08.310Z,47.50
2023-09-01T20:50:12.499Z,48.05
2023-09-01T20:55:16.962Z,48.48
2023-09-01T21:00:22.840Z,48.39
2023-09-01T21:05:26.779Z,48.44
2023-09-01T21:10:30.508Z,49.14
2023-09-01T21:15:35.895Z,49.53
2023-09-01T21:20:39.640Z,49.80
2023-09-01T21:25:43.415Z,50.79
2023-09-01T21:30:48.809Z,50.17
2023-09-01T21:35:52.565Z,50.57
2023-09-01T21:40:56.302Z,50.84
2023-09-01T21:46:01.686Z,50.83
2023-09-01T21:51:05.509Z,50.78
2023-09-01T21:56:09.244Z,51.27
2023-09-01T22:01:15.679Z,52.52
2023-09-01T22:06:19.574Z,53.31
2023-09-01T22:11:23.351Z,54.28
2023-09-01T22:16:29.661Z,54.33
2023-09-01T22:21:33.473Z,54.47
2023-09-01T22:26:37.244Z,56.08
2023-09-01T22:31:42.657Z,55.03
2023-09-01T22:36:46.889Z,55.41
2023-09-01T22:41:50.679Z,57.24
2023-09-01T22:46:57.465Z,58.64
2023-09-01T22:52:01.320Z,59.76
2023-09-01T22:57:05.619Z,62.02
2023-09-01T23:02:11.310Z,63.20
2023-09-01T23:07:15.187Z,62.42
2023-09-01T23:12:18.920Z,62.50
2023-09-01T23:17:25.900Z,63.79
2023-09-01T23:22:29.670Z,63.26
2023-09-01T23:27:33.507Z,64.22
2023-09-01T23:32:39.043Z,64.32
2023-09-01T23:37:42.879Z,64.30
2023-09-01T23:42:46.731Z,63.50
2023-09-01T23:47:52.406Z,63.37
2023-09-01T23:52:56.302Z,62.95
2023-09-01T23:58:00.056Z,63.72
